Time;durP1;ratioP1;P1;durP2;ratioP2;P2;SDS_P1;SDS_P2;PMS_P1;PMS_P2;Temp;Humidity;BMP_temperature;BMP_pressure;BME280_temperature;BME280_humidity;BME280_pressure;Samples;Min_cycle;Max_cycle;Signal;HPM_P1;HPM_P2
2020/12/20 00:05:19;;;;;;;49.1;39.8;;;;;;;-3.08;88.50977;99783.2;;;;
2020/12/20 00:15:17;;;;;;;60.6;37.7;;;;;;;-3.21;89.21094;99764.64;;;;
2020/12/20 00:25:14;;;;;;;44.7;31.1;;;;;;;-3.43;88.22656;99759.56;;;;
2020/12/20 00:35:11;;;;;;;51.1;37.1;;;;;;;-3.91;88.41113;99764.55;;;;
2020/12/20 00:45:09;;;;;;;55.1;35.7;;;;;;;-3.83;87.24219;99761.81;;;;
2020/12/20 00:55:06;;;;;;;36.6;30.3;;;;;;;-3.84;86.83887;99751.45;;;;
2020/12/20 01:05:04;;;;;;;41.9;34;;;;;;;-3.84;86.42676;99747;;;;
2020/12/20 01:15:01;;;;;;;72.6;47.5;;;;;;;-4.01;86.37793;99747.41;;;;
2020/12/20 01:24:58;;;;;;;74.8;47.9;;;;;;;-4.17;86.78125;99745.83;;;;
2020/12/20 01:34:56;;;;;;;62;37.7;;;;;;;-4.29;86.84473;99734.95;;;;
2020/12/20 01:44:53;;;;;;;61.7;40.1;;;;;;;-4.51;86.78809;99730.61;;;;
2020/12/20 01:54:50;;;;;;;67.6;40.1;;;;;;;-4.6;86.63965;99729.91;;;;
2020/12/20 02:04:48;;;;;;;63.7;40.8;;;;;;;-4.85;87.90039;99730.34;;;;
2020/12/20 02:14:45;;;;;;;54.9;32.4;;;;;;;-4.87;89.2627;99729.72;;;;
2020/12/20 02:24:42;;;;;;;41.9;31.9;;;;;;;-4.8;89.46191;99726.19;;;;
2020/12/20 02:34:39;;;;;;;50.3;33.5;;;;;;;-4.83;89.5957;99728.36;;;;
2020/12/20 02:44:36;;;;;;;39.8;30.8;;;;;;;-4.89;89.06348;99719.37;;;;
2020/12/20 02:54:34;;;;;;;43.3;31.7;;;;;;;-4.84;88.45508;99721.47;;;;
2020/12/20 03:04:31;;;;;;;44.9;34.7;;;;;;;-4.82;88.33984;99719.46;;;;
2020/12/20 03:14:28;;;;;;;40.7;27;;;;;;;-4.76;89.75391;99719.58;;;;
2020/12/20 03:24:26;;;;;;;55.6;36;;;;;;;-4.66;90.07617;99711.41;;;;
2020/12/20 03:34:22;;;;;;;50.1;31.8;;;;;;;-4.58;90.24512;99716.55;;;;
2020/12/20 03:44:20;;;;;;;48.4;27.3;;;;;;;-4.47;90.34375;99738.95;;;;
2020/12/20 03:54:19;;;;;;;43.6;29.8;;;;;;;-4.3;90.14355;99725.41;;;;
2020/12/20 04:04:14;;;;;;;42.5;29.3;;;;;;;-4.2;89.1875;99730.41;;;;
2020/12/20 04:14:11;;;;;;;45.8;35.1;;;;;;;-4.38;89.49512;99743.13;;;;
2020/12/20 04:24:09;;;;;;;40.2;29.8;;;;;;;-4.25;89.07813;99743.29;;;;
2020/12/20 04:34:06;;;;;;;59.9;36.2;;;;;;;-4.37;88.90137;99735.04;;;;
2020/12/20 04:44:03;;;;;;;44;30.4;;;;;;;-4.33;89.25684;99738.13;;;;
2020/12/20 04:54:00;;;;;;;51.2;33.1;;;;;;;-4.29;89.3418;99742.84;;;;
2020/12/20 05:03:58;;;;;;;51.5;35.8;;;;;;;-4.17;88.94531;99736.13;;;;
2020/12/20 05:13:55;;;;;;;47.7;31.3;;;;;;;-4.07;88.71387;99746.35;;;;
2020/12/20 05:23:52;;;;;;;43;30.3;;;;;;;-4.05;89.37109;99749.59;;;;
2020/12/20 05:33:50;;;;;;;52.4;35.9;;;;;;;-4.17;89.69434;99744.02;;;;
2020/12/20 05:43:47;;;;;;;53.1;31.7;;;;;;;-4.04;88.92773;99753.88;;;;
2020/12/20 05:53:44;;;;;;;41.5;29.5;;;;;;;-3.83;88.94922;99753.09;;;;
2020/12/20 06:03:41;;;;;;;44.6;29.9;;;;;;;-3.71;88.0625;99756.85;;;;
2020/12/20 06:13:39;;;;;;;34.1;24.8;;;;;;;-3.79;88.17578;99764.89;;;;
2020/12/20 06:23:36;;;;;;;31.5;24.4;;;;;;;-3.81;88.45508;99765.06;;;;
2020/12/20 06:33:37;;;;;;;34.4;25.9;;;;;;;-3.9;88.15137;99768;;;;
2020/12/20 06:43:34;;;;;;;33.2;25.8;;;;;;;-3.98;88.40625;99768.1;;;;
2020/12/20 06:53:57;;;;;;;38.1;23.2;;;;;;;-3.78;87.87305;99779.67;;;;
2020/12/20 07:03:33;;;;;;;39.8;26.7;;;;;;;-3.85;87.82617;99800.66;;;;
2020/12/20 07:13:38;;;;;;;37.7;32.3;;;;;;;-3.65;87.75781;99798.27;;;;
2020/12/20 07:23:20;;;;;;;40.1;28.5;;;;;;;-3.59;87.09863;99800.97;;;;
2020/12/20 07:33:18;;;;;;;42;32.3;;;;;;;-3.44;87.5957;99810.65;;;;
2020/12/20 07:43:15;;;;;;;44;33.3;;;;;;;-3.42;88.16699;99801.55;;;;
2020/12/20 07:53:13;;;;;;;49.9;35.7;;;;;;;-3.52;87.79688;99801.04;;;;
2020/12/20 08:03:10;;;;;;;40.1;29.7;;;;;;;-3.36;87.33984;99790.25;;;;
2020/12/20 08:13:07;;;;;;;70.4;44.9;;;;;;;-3.75;88.10742;99806.45;;;;
2020/12/20 08:23:05;;;;;;;65.3;37.7;;;;;;;-3.48;89.05664;99804.94;;;;
2020/12/20 08:33:02;;;;;;;62.1;37.4;;;;;;;-3.19;89.19336;99806.61;;;;
2020/12/20 08:43:00;;;;;;;43.5;33.8;;;;;;;-2.95;89.33105;99808.85;;;;
2020/12/20 08:52:57;;;;;;;51.2;38.8;;;;;;;-2.77;88.74805;99805.75;;;;
2020/12/20 09:02:55;;;;;;;48.7;35.2;;;;;;;-2.48;88.60156;99800.28;;;;
2020/12/20 09:12:52;;;;;;;51.1;36.1;;;;;;;-2.08;87.12305;99798.66;;;;
2020/12/20 09:22:50;;;;;;;57.1;42;;;;;;;-2.05;86.63672;99793.01;;;;
2020/12/20 09:32:48;;;;;;;35.8;27.4;;;;;;;-1.69;86.11035;99790.07;;;;
2020/12/20 09:42:46;;;;;;;54.3;32.1;;;;;;;-2;85.86133;99798.5;;;;
2020/12/20 09:52:43;;;;;;;48.2;36.7;;;;;;;-2.13;85.9668;99793.98;;;;
2020/12/20 10:02:41;;;;;;;48.3;33.1;;;;;;;-1.82;85.78809;99787.39;;;;
2020/12/20 10:12:39;;;;;;;42.9;34.5;;;;;;;-1.8;86.66797;99783.53;;;;
2020/12/20 10:22:36;;;;;;;53.8;40.1;;;;;;;-1.5;86.03906;99775.29;;;;
2020/12/20 10:32:34;;;;;;;43;30.9;;;;;;;-1.24;84.87793;99754.97;;;;
2020/12/20 10:42:31;;;;;;;48.9;37.5;;;;;;;-1.29;85.0752;99754.78;;;;
2020/12/20 10:52:29;;;;;;;47.5;37.2;;;;;;;-1.24;84.97461;99748.87;;;;
2020/12/20 11:02:27;;;;;;;59.4;43.9;;;;;;;-1.43;84.14941;99758.43;;;;
2020/12/20 11:12:26;;;;;;;63.8;41.1;;;;;;;-1.51;85.08594;99761.25;;;;
2020/12/20 11:22:22;;;;;;;57.5;43.7;;;;;;;-1.32;85.66113;99771.03;;;;
2020/12/20 11:32:20;;;;;;;56.4;46;;;;;;;-0.98;84.8623;99763.94;;;;
2020/12/20 11:42:18;;;;;;;53.1;39;;;;;;;-1.09;86.2666;99771.47;;;;
2020/12/20 11:52:16;;;;;;;55.4;43.7;;;;;;;-0.76;84.32422;99778.56;;;;
2020/12/20 12:02:13;;;;;;;45.1;35.2;;;;;;;-1.08;85.43359;99778.37;;;;
2020/12/20 12:12:11;;;;;;;56.1;38.6;;;;;;;-1.07;84.55078;99780;;;;
2020/12/20 12:22:09;;;;;;;50.6;35.1;;;;;;;-1.28;85.40527;99777.55;;;;
2020/12/20 12:32:07;;;;;;;46.4;32.9;;;;;;;-1.14;85.62988;99773.08;;;;
2020/12/20 12:42:05;;;;;;;47.8;33.7;;;;;;;-1.46;87.38184;99774.7;;;;
2020/12/20 12:52:02;;;;;;;43.2;30.7;;;;;;;-1.29;85.91797;99781.23;;;;
2020/12/20 13:02:00;;;;;;;45.1;29.1;;;;;;;-1.21;86.30664;99781.02;;;;
2020/12/20 13:11:58;;;;;;;43.1;34.2;;;;;;;-1.27;86.02051;99771.25;;;;
2020/12/20 13:21:57;;;;;;;45.4;28;;;;;;;-1.32;86.48145;99776.31;;;;
2020/12/20 13:31:53;;;;;;;38.1;31.6;;;;;;;-1.37;87.125;99772.66;;;;
2020/12/20 13:41:52;;;;;;;38.5;30.3;;;;;;;-1.25;86.55957;99771.84;;;;
2020/12/20 13:51:49;;;;;;;49.1;31.2;;;;;;;-1.17;85.41797;99769.02;;;;
2020/12/20 14:01:47;;;;;;;40.9;31.7;;;;;;;-1.48;87.09473;99760.84;;;;
2020/12/20 14:11:44;;;;;;;37;30.3;;;;;;;-1.33;86.72949;99771.25;;;;
2020/12/20 14:21:42;;;;;;;34.7;25.3;;;;;;;-1.57;87.20703;99757.59;;;;
2020/12/20 14:31:40;;;;;;;48.5;27.9;;;;;;;-1.41;86.75684;99756.38;;;;
2020/12/20 14:41:38;;;;;;;45.6;33.5;;;;;;;-1.56;86.79395;99761.84;;;;
2020/12/20 14:51:35;;;;;;;48.4;28.8;;;;;;;-1.82;87.75684;99772.36;;;;
2020/12/20 15:01:33;;;;;;;41;29.7;;;;;;;-1.68;87.65332;99762.64;;;;
2020/12/20 15:11:30;;;;;;;33.8;23.1;;;;;;;-1.64;87.32227;99769.16;;;;
2020/12/20 15:21:28;;;;;;;42.2;27.7;;;;;;;-1.73;88.13379;99772.98;;;;
2020/12/20 15:31:27;;;;;;;30.1;22.1;;;;;;;-1.87;88.17188;99772.13;;;;
2020/12/20 15:41:23;;;;;;;30.9;21.2;;;;;;;-2.01;88.0752;99764.38;;;;
2020/12/20 15:51:21;;;;;;;29.8;22.3;;;;;;;-2.18;88.63086;99762.05;;;;
2020/12/20 16:01:19;;;;;;;37.7;25;;;;;;;-2.13;88.6748;99769.39;;;;
2020/12/20 16:11:16;;;;;;;36.3;24.6;;;;;;;-2.05;88.26367;99766.59;;;;
2020/12/20 16:21:14;;;;;;;33;24.1;;;;;;;-2.01;88.29297;99759.09;;;;
2020/12/20 16:31:11;;;;;;;51.3;30.1;;;;;;;-2.12;88.33789;99745.41;;;;
2020/12/20 16:41:09;;;;;;;34.2;28.9;;;;;;;-2.11;88.0127;99730.39;;;;
2020/12/20 16:51:07;;;;;;;43.3;30.2;;;;;;;-2.31;88.51563;99764.64;;;;
2020/12/20 17:01:04;;;;;;;26.4;21.8;;;;;;;-2.47;87.9043;99754.41;;;;
2020/12/20 17:11:02;;;;;;;33.2;20.2;;;;;;;-2.3;87.31738;99773.38;;;;
2020/12/20 17:20:59;;;;;;;31.5;21.8;;;;;;;-2.21;87.16309;99753.7;;;;
2020/12/20 17:30:57;;;;;;;33.7;22;;;;;;;-2.21;87.03125;99751.07;;;;
2020/12/20 17:40:55;;;;;;;31.5;23.6;;;;;;;-2.3;86.75;99752.26;;;;
2020/12/20 17:50:52;;;;;;;40.8;30;;;;;;;-2.47;87.68555;99745.67;;;;
2020/12/20 18:00:50;;;;;;;39;27;;;;;;;-2.64;88.34863;99755.73;;;;
2020/12/20 18:10:47;;;;;;;30.6;23.6;;;;;;;-2.49;87.97656;99753.77;;;;
2020/12/20 18:20:45;;;;;;;45.4;32.2;;;;;;;-2.64;88.2959;99745.97;;;;
2020/12/20 18:30:43;;;;;;;37.5;33.4;;;;;;;-2.82;89.25;99756.23;;;;
2020/12/20 18:40:40;;;;;;;37;32.3;;;;;;;-2.56;88.19043;99766.12;;;;
2020/12/20 18:50:38;;;;;;;53.3;36.2;;;;;;;-2.55;87.82422;99750.1;;;;
2020/12/20 19:00:36;;;;;;;37.8;29.3;;;;;;;-2.57;87.6543;99753.95;;;;
2020/12/20 19:10:33;;;;;;;42.2;31.5;;;;;;;-2.64;87.88184;99761.8;;;;
2020/12/20 19:20:30;;;;;;;37.2;25.2;;;;;;;-2.56;87.06934;99761.66;;;;
2020/12/20 19:30:28;;;;;;;38.2;25.7;;;;;;;-2.7;87.43262;99775.77;;;;
2020/12/20 19:40:27;;;;;;;48;28.1;;;;;;;-2.82;88.07227;99771.23;;;;
2020/12/20 19:50:23;;;;;;;41.8;29.5;;;;;;;-2.77;87.99609;99768.81;;;;
2020/12/20 20:00:21;;;;;;;48.3;30.2;;;;;;;-2.88;89.01758;99756.19;;;;
2020/12/20 20:10:19;;;;;;;56.8;37.6;;;;;;;-2.74;88.2627;99765.82;;;;
2020/12/20 20:20:16;;;;;;;52.5;32.7;;;;;;;-2.66;87.93066;99770.92;;;;
2020/12/20 20:30:13;;;;;;;44.7;32.9;;;;;;;-2.67;87.1543;99761.38;;;;
2020/12/20 20:40:12;;;;;;;53.3;36.2;;;;;;;-2.89;88.19824;99759.82;;;;
2020/12/20 20:50:09;;;;;;;31.9;27.5;;;;;;;-2.94;87.50293;99770.11;;;;
2020/12/20 21:00:06;;;;;;;41.3;30.6;;;;;;;-2.96;87.98926;99767.69;;;;
2020/12/20 21:10:04;;;;;;;62.1;33.2;;;;;;;-2.85;87.79395;99776.9;;;;
2020/12/20 21:20:02;;;;;;;43.2;33.6;;;;;;;-2.79;87.20703;99776.94;;;;
2020/12/20 21:29:59;;;;;;;43.2;27.5;;;;;;;-2.82;87.15625;99781.78;;;;
2020/12/20 21:39:56;;;;;;;31;22.6;;;;;;;-2.98;87.77637;99787.32;;;;
2020/12/20 21:49:54;;;;;;;34.8;30.1;;;;;;;-3.18;89.16211;99795.08;;;;
2020/12/20 21:59:52;;;;;;;45.6;29.9;;;;;;;-3.34;89.83594;99790.89;;;;
2020/12/20 22:09:49;;;;;;;29.2;21.3;;;;;;;-3.31;89.19922;99785.23;;;;
2020/12/20 22:19:47;;;;;;;45;31.5;;;;;;;-3.3;88.74609;99789.52;;;;
2020/12/20 22:29:44;;;;;;;55.4;41;;;;;;;-3.65;88.74707;99785.1;;;;
2020/12/20 22:39:42;;;;;;;48.6;36.1;;;;;;;-3.54;88.53223;99781.98;;;;
2020/12/20 22:49:39;;;;;;;55;39;;;;;;;-3.64;88.68457;99760.37;;;;
2020/12/20 22:59:37;;;;;;;48.7;35.9;;;;;;;-3.53;88.46875;99780.95;;;;
2020/12/20 23:09:34;;;;;;;52.7;34;;;;;;;-3.67;89.27832;99787.91;;;;
2020/12/20 23:19:32;;;;;;;49.2;38.6;;;;;;;-3.83;89.27539;99771.53;;;;
2020/12/20 23:29:29;;;;;;;39.5;29.6;;;;;;;-3.74;88.86133;99773.85;;;;
2020/12/20 23:39:28;;;;;;;46.4;32;;;;;;;-3.9;89.82715;99766.19;;;;
2020/12/20 23:49:24;;;;;;;56.8;31.5;;;;;;;-3.76;89.61621;99772.41;;;;
2020/12/20 23:59:21;;;;;;;51.7;35.8;;;;;;;-3.69;89.16602;99763.59;;;;
